Time;durP1;ratioP1;P1;durP2;ratioP2;P2;SDS_P1;SDS_P2;PMS_P1;PMS_P2;Temp;Humidity;BMP_temperature;BMP_pressure;BME280_temperature;BME280_humidity;BME280_pressure;Samples;Min_cycle;Max_cycle;Signal;HPM_P1;HPM_P2
2021/11/13 00:00:17;;;;;;;95.82;56.47;;;205.60;2252.80;;;;;;5027822;28;20444;-59
2021/11/13 00:02:43;;;;;;;104.03;55.63;;;205.50;2252.80;;;;;;5028621;28;20731;-59
2021/11/13 00:05:09;;;;;;;102.55;56.80;;;205.30;2252.80;;;;;;5028560;28;20068;-60
2021/11/13 00:07:36;;;;;;;89.85;55.47;;;205.40;2252.80;;;;;;5028803;28;20080;-59
2021/11/13 00:10:03;;;;;;;90.57;54.00;;;205.60;2252.80;;;;;;5028581;28;20027;-59
2021/11/13 00:12:28;;;;;;;94.50;52.95;;;205.70;2252.80;;;;;;5028387;28;20033;-59
2021/11/13 00:14:54;;;;;;;126.20;68.32;;;205.60;2252.80;;;;;;5028970;28;20036;-59
2021/11/13 00:17:20;;;;;;;128.20;69.90;;;205.50;2252.80;;;;;;5029659;28;20105;-60
2021/11/13 00:19:46;;;;;;;149.05;79.32;;;205.50;2252.80;;;;;;5030651;28;20033;-59
2021/11/13 00:22:12;;;;;;;105.38;60.58;;;205.60;2252.80;;;;;;5029855;28;20032;-59
2021/11/13 00:24:38;;;;;;;98.38;56.58;;;205.60;2252.80;;;;;;5030069;28;20439;-59
2021/11/13 00:27:05;;;;;;;96.22;55.45;;;205.60;2252.80;;;;;;5029939;28;20059;-59
2021/11/13 00:29:31;;;;;;;94.20;57.00;;;205.60;2252.80;;;;;;5029814;28;20083;-59
2021/11/13 00:31:57;;;;;;;102.32;57.72;;;205.70;2252.80;;;;;;5030370;28;20037;-59
2021/11/13 00:34:23;;;;;;;92.13;51.58;;;205.60;2252.80;;;;;;5029845;28;20034;-58
2021/11/13 00:36:49;;;;;;;94.95;52.65;;;205.50;2252.80;;;;;;5030133;28;20108;-59
2021/11/13 00:39:16;;;;;;;131.88;72.45;;;205.40;2252.80;;;;;;5030070;28;20084;-60
2021/11/13 00:41:41;;;;;;;94.30;52.63;;;205.50;2252.80;;;;;;5029878;28;20121;-59
2021/11/13 00:44:07;;;;;;;77.93;47.80;;;205.40;2252.80;;;;;;5029990;28;20072;-59
2021/11/13 00:46:33;;;;;;;89.10;46.80;;;205.50;2252.80;;;;;;5029874;28;20100;-59
2021/11/13 00:48:59;;;;;;;100.05;55.10;;;205.60;2252.80;;;;;;5030238;28;20961;-58
2021/11/13 00:51:25;;;;;;;86.85;51.45;;;205.60;2252.80;;;;;;5030078;28;20040;-58
2021/11/13 00:53:51;;;;;;;80.13;49.85;;;205.60;2252.80;;;;;;5029423;28;20468;-59
2021/11/13 00:56:17;;;;;;;82.80;50.55;;;205.70;2252.80;;;;;;5029971;28;20053;-59
2021/11/13 00:58:42;;;;;;;106.18;60.35;;;205.70;2252.80;;;;;;5029590;28;20033;-58
2021/11/13 01:01:08;;;;;;;86.55;46.20;;;205.70;2252.80;;;;;;5029829;28;20107;-59
2021/11/13 01:03:34;;;;;;;80.80;46.83;;;205.40;2252.80;;;;;;5029717;28;20104;-59
2021/11/13 01:06:00;;;;;;;83.90;52.10;;;205.30;2252.80;;;;;;5029760;28;20064;-59
2021/11/13 01:08:26;;;;;;;93.80;50.60;;;205.10;2252.80;;;;;;5029895;28;20467;-59
2021/11/13 01:10:52;;;;;;;94.55;52.60;;;205.10;2252.80;;;;;;5031840;28;20029;-58
2021/11/13 01:13:19;;;;;;;99.28;53.67;;;205.00;2252.80;;;;;;5033512;28;20038;-58
2021/11/13 01:15:45;;;;;;;88.50;49.53;;;205.20;2252.80;;;;;;5033841;28;20434;-58
2021/11/13 01:18:11;;;;;;;92.70;53.10;;;205.20;2252.80;;;;;;5033295;28;20026;-59
2021/11/13 01:20:38;;;;;;;92.03;54.40;;;205.20;2252.80;;;;;;5033448;28;20022;-58
2021/11/13 01:23:04;;;;;;;93.75;50.92;;;205.10;2252.80;;;;;;5033158;28;20036;-60
2021/11/13 01:25:30;;;;;;;82.68;49.45;;;205.00;2252.80;;;;;;5033243;28;20487;-59
2021/11/13 01:27:56;;;;;;;86.03;51.65;;;205.00;2252.80;;;;;;5033480;28;20104;-59
2021/11/13 01:30:23;;;;;;;86.47;50.17;;;205.00;2252.80;;;;;;5033142;28;20025;-59
2021/11/13 01:32:48;;;;;;;90.03;50.10;;;205.10;2252.80;;;;;;5033462;28;20083;-58
2021/11/13 01:35:17;;;;;;;86.68;51.53;;;205.10;2252.80;;;;;;5033298;28;20534;-58
2021/11/13 01:37:43;;;;;;;85.13;50.30;;;205.00;2252.80;;;;;;5033030;28;20033;-59
2021/11/13 01:40:13;;;;;;;95.65;51.45;;;205.10;2252.80;;;;;;5033099;28;20547;-58
2021/11/13 01:42:39;;;;;;;90.88;47.90;;;205.20;2252.80;;;;;;5033236;28;20116;-58
2021/11/13 01:45:07;;;;;;;96.93;52.88;;;205.40;2252.80;;;;;;5032964;28;20033;-59
2021/11/13 01:47:33;;;;;;;90.25;51.97;;;205.30;2252.80;;;;;;5032984;28;20037;-60
2021/11/13 01:49:59;;;;;;;81.22;47.53;;;205.30;2252.80;;;;;;5033124;28;20025;-59
2021/11/13 01:52:25;;;;;;;82.22;46.60;;;205.20;2252.80;;;;;;5032868;28;20029;-60
2021/11/13 01:54:51;;;;;;;79.25;43.30;;;205.10;2252.80;;;;;;5032642;28;20026;-59
2021/11/13 01:57:21;;;;;;;74.22;43.72;;;205.30;2252.80;;;;;;5032641;28;20029;-58
2021/11/13 01:59:49;;;;;;;82.55;45.83;;;205.20;2252.80;;;;;;5032658;28;20076;-58
2021/11/13 02:02:15;;;;;;;83.75;46.22;;;205.00;2252.80;;;;;;5032711;28;20480;-59
2021/11/13 02:04:41;;;;;;;78.20;44.15;;;180.00;2252.80;;;;;;5032488;28;20025;-59
2021/11/13 02:07:07;;;;;;;84.53;46.38;;;204.80;2252.80;;;;;;5032663;28;20037;-59
2021/11/13 02:09:33;;;;;;;82.50;45.17;;;180.00;2252.80;;;;;;5032387;28;20091;-59
2021/11/13 02:11:59;;;;;;;85.55;47.38;;;180.00;2252.80;;;;;;5032700;28;20576;-59
2021/11/13 02:14:29;;;;;;;87.18;48.08;;;204.80;2252.80;;;;;;5032436;28;20033;-58
2021/11/13 02:16:56;;;;;;;79.25;47.13;;;205.00;2252.80;;;;;;5032542;28;20025;-58
2021/11/13 02:19:22;;;;;;;76.22;45.92;;;205.00;2252.80;;;;;;5032178;28;20151;-58
2021/11/13 02:21:48;;;;;;;86.85;50.50;;;205.00;2252.80;;;;;;5031384;28;20349;-59
2021/11/13 02:24:14;;;;;;;93.38;51.15;;;205.00;2252.80;;;;;;5032129;28;20108;-60
2021/11/13 02:26:40;;;;;;;83.53;46.55;;;205.20;2252.80;;;;;;5031003;28;20056;-60
2021/11/13 02:29:06;;;;;;;88.32;48.33;;;205.20;2252.80;;;;;;5032118;28;20033;-59
2021/11/13 02:31:34;;;;;;;83.45;47.97;;;205.20;2252.80;;;;;;5032258;28;20095;-59
2021/11/13 02:34:00;;;;;;;89.50;50.17;;;205.20;2252.80;;;;;;5031732;28;20091;-59
2021/11/13 02:36:26;;;;;;;84.60;46.70;;;205.20;2252.80;;;;;;5032300;28;20021;-59
2021/11/13 02:38:56;;;;;;;89.97;50.05;;;205.30;2252.80;;;;;;5031981;28;20060;-60
2021/11/13 02:41:22;;;;;;;79.63;47.60;;;205.20;2252.80;;;;;;5031887;28;20087;-59
2021/11/13 02:43:49;;;;;;;89.60;47.25;;;205.00;2252.80;;;;;;5031853;28;20017;-59
2021/11/13 02:46:15;;;;;;;83.05;48.50;;;205.30;2252.80;;;;;;5032134;28;20032;-59
2021/11/13 02:48:43;;;;;;;90.97;52.88;;;205.30;2252.80;;;;;;5031708;28;20030;-59
2021/11/13 02:51:11;;;;;;;93.88;48.80;;;205.40;2252.80;;;;;;5031937;28;20415;-59
2021/11/13 02:53:37;;;;;;;98.40;48.55;;;205.00;2252.80;;;;;;5031495;28;20037;-59
2021/11/13 02:56:06;;;;;;;93.50;50.38;;;204.80;2252.80;;;;;;5031453;28;20025;-59
2021/11/13 02:58:34;;;;;;;81.45;48.13;;;205.00;2252.80;;;;;;5031737;28;20526;-59
2021/11/13 03:01:11;;;;;;;90.57;47.75;;;205.00;2252.80;;;;;;5031467;28;20077;-59
2021/11/13 03:03:38;;;;;;;91.80;50.70;;;205.10;2252.80;;;;;;5031615;28;20021;-60
2021/11/13 03:06:08;;;;;;;86.28;48.20;;;205.20;2252.80;;;;;;5031413;28;20038;-58
2021/11/13 03:08:35;;;;;;;91.78;47.55;;;205.30;2252.80;;;;;;5031210;28;20467;-59
2021/11/13 03:11:05;;;;;;;86.90;49.58;;;205.30;2252.80;;;;;;5031304;28;20467;-60
2021/11/13 03:13:31;;;;;;;82.45;45.50;;;205.30;2252.80;;;;;;5031330;28;20116;-59
2021/11/13 03:15:59;;;;;;;83.32;46.03;;;205.20;2252.80;;;;;;5031464;28;20483;-59
2021/11/13 03:18:24;;;;;;;88.72;49.92;;;205.00;2252.80;;;;;;5031447;28;20033;-59
2021/11/13 03:20:50;;;;;;;81.47;45.67;;;205.10;2252.80;;;;;;5031039;28;20029;-59
2021/11/13 03:23:17;;;;;;;81.63;47.88;;;205.00;2252.80;;;;;;5031200;28;20479;-58
2021/11/13 03:25:58;;;;;;;89.43;46.05;;;205.00;2252.80;;;;;;5030964;28;20033;-58
2021/11/13 03:28:25;;;;;;;82.13;43.53;;;205.00;2252.80;;;;;;5030986;28;20021;-59
2021/11/13 03:30:51;;;;;;;88.97;47.45;;;204.80;2252.80;;;;;;5030745;28;20063;-59
2021/11/13 03:33:17;;;;;;;97.07;49.20;;;180.10;2252.80;;;;;;5030828;28;20049;-58
2021/11/13 03:35:43;;;;;;;79.57;46.83;;;179.90;2252.80;;;;;;5030732;28;20033;-59
2021/11/13 03:38:12;;;;;;;97.70;56.08;;;204.80;2252.80;;;;;;5030820;28;20025;-58
2021/11/13 03:40:41;;;;;;;85.15;48.38;;;204.80;2252.80;;;;;;5030857;28;20482;-60
2021/11/13 03:43:08;;;;;;;82.22;48.08;;;205.00;2252.80;;;;;;5031105;28;20017;-58
2021/11/13 03:45:34;;;;;;;81.75;45.72;;;205.10;2252.80;;;;;;5030449;28;20031;-58
2021/11/13 03:48:00;;;;;;;77.45;43.15;;;205.10;2252.80;;;;;;5030589;28;20100;-58
2021/11/13 03:50:27;;;;;;;84.60;47.78;;;205.20;2252.80;;;;;;5030838;28;20490;-60
2021/11/13 03:52:53;;;;;;;83.50;48.00;;;205.20;2252.80;;;;;;5030294;28;20068;-59
2021/11/13 03:55:19;;;;;;;77.25;43.00;;;205.20;2252.80;;;;;;5030857;28;20125;-59
2021/11/13 03:57:45;;;;;;;85.63;45.42;;;205.20;2252.80;;;;;;5030905;28;20022;-58
2021/11/13 04:00:11;;;;;;;100.30;47.97;;;205.20;2252.80;;;;;;5030249;28;20049;-59
2021/11/13 04:02:38;;;;;;;86.00;47.63;;;205.30;2252.80;;;;;;5030650;28;20040;-58
2021/11/13 04:05:04;;;;;;;96.25;51.13;;;205.20;2252.80;;;;;;5030302;28;20032;-59
2021/11/13 04:07:29;;;;;;;90.03;47.65;;;205.20;2252.80;;;;;;5030285;28;20022;-59
2021/11/13 04:09:55;;;;;;;79.40;43.38;;;205.20;2252.80;;;;;;5030434;28;20021;-58
2021/11/13 04:12:21;;;;;;;84.85;48.72;;;205.20;2252.80;;;;;;5030189;28;20029;-59
2021/11/13 04:14:47;;;;;;;88.85;47.92;;;205.10;2252.80;;;;;;5030346;28;20037;-59
2021/11/13 04:17:13;;;;;;;85.78;46.95;;;205.00;2252.80;;;;;;5030328;28;20458;-59
2021/11/13 04:19:39;;;;;;;89.78;52.08;;;204.90;2252.80;;;;;;5030392;28;20396;-58
2021/11/13 04:22:05;;;;;;;85.10;47.75;;;204.90;2252.80;;;;;;5030376;28;20053;-59
2021/11/13 04:24:31;;;;;;;85.28;45.60;;;204.90;2252.80;;;;;;5029829;28;20492;-59
2021/11/13 04:26:56;;;;;;;96.53;50.42;;;205.10;2252.80;;;;;;5030282;28;20100;-59
2021/11/13 04:29:22;;;;;;;87.68;48.38;;;205.00;2252.80;;;;;;5029926;28;20061;-59
2021/11/13 04:31:48;;;;;;;94.72;53.70;;;204.80;2252.80;;;;;;5030296;28;20064;-59
2021/11/13 04:34:20;;;;;;;87.63;47.42;;;204.90;2252.80;;;;;;5029876;28;20076;-59
2021/11/13 04:36:51;;;;;;;89.45;48.05;;;205.00;2252.80;;;;;;5030223;28;20482;-58
2021/11/13 04:39:17;;;;;;;104.15;54.17;;;180.10;2252.80;;;;;;5029827;28;20032;-58
2021/11/13 04:41:43;;;;;;;100.72;59.90;;;179.70;2252.80;;;;;;5029884;28;20029;-58
2021/11/13 04:44:09;;;;;;;89.90;49.78;;;179.70;2252.80;;;;;;5030228;28;20029;-59
2021/11/13 04:46:34;;;;;;;114.65;58.40;;;179.70;2252.80;;;;;;5033502;28;20040;-59
2021/11/13 04:49:00;;;;;;;94.45;49.13;;;179.80;2252.80;;;;;;5034079;28;20026;-59
2021/11/13 04:51:26;;;;;;;94.47;52.72;;;180.00;2252.80;;;;;;5034202;28;20424;-59
2021/11/13 04:53:52;;;;;;;93.28;52.33;;;179.90;2252.80;;;;;;5033677;28;20037;-59
2021/11/13 04:56:18;;;;;;;108.25;57.50;;;180.10;2252.80;;;;;;5033912;28;20375;-59
2021/11/13 04:58:43;;;;;;;103.05;52.47;;;179.70;2252.80;;;;;;5033679;28;20111;-59
2021/11/13 05:01:09;;;;;;;89.63;53.60;;;179.80;2252.80;;;;;;5033919;28;20520;-59
2021/11/13 05:03:35;;;;;;;102.57;55.15;;;179.90;2252.80;;;;;;5034119;28;20495;-59
2021/11/13 05:06:01;;;;;;;90.90;52.05;;;179.70;2252.80;;;;;;5033783;28;20538;-59
2021/11/13 05:08:27;;;;;;;96.38;49.42;;;179.60;2252.80;;;;;;5033649;28;20628;-59
2021/11/13 05:10:52;;;;;;;95.05;48.45;;;179.60;2252.80;;;;;;5033522;28;20109;-59
2021/11/13 05:13:19;;;;;;;104.95;52.83;;;179.50;2252.80;;;;;;5033680;28;20041;-59
2021/11/13 05:15:45;;;;;;;102.05;51.67;;;179.50;2252.80;;;;;;5033655;28;20053;-59
2021/11/13 05:18:11;;;;;;;89.18;49.72;;;179.60;2252.80;;;;;;5033515;28;20056;-59
2021/11/13 05:20:37;;;;;;;99.18;53.25;;;179.70;2252.80;;;;;;5033538;28;20027;-59
2021/11/13 05:23:04;;;;;;;95.45;50.22;;;179.80;2252.80;;;;;;5033301;28;20032;-59
2021/11/13 05:25:30;;;;;;;98.90;52.92;;;179.90;2252.80;;;;;;5033241;28;20022;-60
2021/11/13 05:27:56;;;;;;;94.57;47.10;;;179.80;2252.80;;;;;;5033548;28;20486;-59
2021/11/13 05:30:23;;;;;;;98.18;51.63;;;179.90;2252.80;;;;;;5033166;28;20029;-59
2021/11/13 05:32:50;;;;;;;94.72;51.25;;;179.90;2252.80;;;;;;5032150;28;20032;-59
2021/11/13 05:35:17;;;;;;;118.20;60.92;;;180.00;2252.80;;;;;;5033265;28;20025;-59
2021/11/13 05:37:44;;;;;;;98.45;51.03;;;179.80;2252.80;;;;;;5032930;28;20026;-59
2021/11/13 05:40:11;;;;;;;94.85;50.08;;;179.50;2252.80;;;;;;5032776;28;20034;-59
2021/11/13 05:42:38;;;;;;;98.95;52.45;;;179.50;2252.80;;;;;;5033398;28;20104;-59
2021/11/13 05:45:06;;;;;;;96.38;53.65;;;179.50;2252.80;;;;;;5032865;28;20036;-59
2021/11/13 05:47:31;;;;;;;109.47;58.92;;;179.60;2252.80;;;;;;5032957;28;20113;-60
2021/11/13 05:49:57;;;;;;;100.97;53.47;;;179.50;2252.80;;;;;;5033010;28;20087;-59
2021/11/13 05:52:23;;;;;;;107.80;55.83;;;179.40;2252.80;;;;;;5032699;28;20025;-59
2021/11/13 05:54:49;;;;;;;110.38;56.15;;;179.40;2252.80;;;;;;5032779;28;20041;-58
2021/11/13 05:57:15;;;;;;;112.35;54.63;;;179.60;2252.80;;;;;;5032759;28;20072;-60
2021/11/13 05:59:40;;;;;;;103.85;52.67;;;179.70;2252.80;;;;;;5032375;28;20412;-59
2021/11/13 06:02:06;;;;;;;103.97;52.33;;;179.60;2252.80;;;;;;5032887;28;20472;-59
2021/11/13 06:04:32;;;;;;;114.25;55.42;;;179.40;2252.80;;;;;;5032535;28;20044;-59
2021/11/13 06:06:59;;;;;;;127.25;60.60;;;179.30;2252.80;;;;;;5032587;28;20081;-59
2021/11/13 06:09:26;;;;;;;111.43;53.00;;;179.30;2252.80;;;;;;5032671;28;20033;-59
2021/11/13 06:11:52;;;;;;;122.75;58.47;;;179.40;2252.80;;;;;;5032339;28;20471;-58
2021/11/13 06:14:17;;;;;;;112.53;58.28;;;179.40;2252.80;;;;;;5032467;28;20033;-58
2021/11/13 06:16:44;;;;;;;121.25;64.68;;;179.50;2252.80;;;;;;5032366;28;20121;-58
2021/11/13 06:19:09;;;;;;;141.48;77.45;;;179.30;2252.80;;;;;;5032390;28;20213;-60
2021/11/13 06:21:35;;;;;;;123.65;67.72;;;179.30;2252.80;;;;;;5032450;28;20083;-60
2021/11/13 06:24:01;;;;;;;111.40;59.70;;;179.30;2252.80;;;;;;5032232;28;20025;-59
2021/11/13 06:26:27;;;;;;;121.18;64.00;;;179.50;2252.80;;;;;;5032397;28;20040;-59
2021/11/13 06:28:53;;;;;;;131.75;62.30;;;179.60;2252.80;;;;;;5032066;28;20041;-58
2021/11/13 06:31:18;;;;;;;124.00;59.75;;;179.40;2252.80;;;;;;5032334;28;20387;-59
2021/11/13 06:33:44;;;;;;;107.45;56.72;;;179.80;2252.80;;;;;;5031979;28;20544;-59
2021/11/13 06:36:10;;;;;;;132.63;69.00;;;179.50;2252.80;;;;;;5032008;28;20021;-59
2021/11/13 06:38:36;;;;;;;150.35;75.82;;;179.50;2252.80;;;;;;5031939;28;20025;-59
2021/11/13 06:41:02;;;;;;;148.30;67.10;;;179.40;2252.80;;;;;;5031876;28;20061;-59
2021/11/13 06:43:28;;;;;;;182.80;95.63;;;179.40;2252.80;;;;;;5032131;28;20494;-58
2021/11/13 06:45:53;;;;;;;142.57;72.78;;;179.40;2252.80;;;;;;5031863;28;20025;-59
2021/11/13 06:48:20;;;;;;;140.80;71.88;;;179.50;2252.80;;;;;;5031908;28;20948;-59
2021/11/13 06:50:47;;;;;;;133.27;69.43;;;179.60;2252.80;;;;;;5031826;28;20097;-59
2021/11/13 06:53:14;;;;;;;131.05;64.20;;;179.40;2252.80;;;;;;5031480;28;20040;-59
2021/11/13 06:55:40;;;;;;;192.65;100.78;;;179.60;2252.80;;;;;;5031565;28;20036;-59
2021/11/13 06:58:06;;;;;;;190.00;65.93;;;179.80;2252.80;;;;;;5031634;28;20028;-59
2021/11/13 07:00:32;;;;;;;205.35;85.78;;;179.40;2252.80;;;;;;5031173;28;20049;-60
2021/11/13 07:03:00;;;;;;;136.27;68.10;;;179.20;2252.80;;;;;;5031651;28;20045;-59
2021/11/13 07:05:27;;;;;;;153.05;79.88;;;179.40;2252.80;;;;;;5031809;28;20033;-59
2021/11/13 07:07:54;;;;;;;147.35;66.03;;;179.70;2252.80;;;;;;5030801;28;20052;-59
2021/11/13 07:10:21;;;;;;;160.63;69.82;;;179.70;2252.80;;;;;;5031172;28;20511;-59
2021/11/13 07:12:47;;;;;;;145.43;70.72;;;179.70;2252.80;;;;;;5031206;28;20067;-59
2021/11/13 07:15:15;;;;;;;131.95;68.57;;;180.00;2252.80;;;;;;5031117;28;20464;-59
2021/11/13 07:17:42;;;;;;;138.27;77.80;;;180.10;2252.80;;;;;;5031174;28;20033;-59
2021/11/13 07:20:09;;;;;;;121.60;66.07;;;204.90;2252.80;;;;;;5031279;28;20029;-58
2021/11/13 07:22:36;;;;;;;127.03;59.92;;;205.00;2252.80;;;;;;5031169;28;20064;-59
2021/11/13 07:25:01;;;;;;;146.65;80.47;;;204.90;2252.80;;;;;;5030981;28;20535;-59
2021/11/13 07:27:27;;;;;;;132.73;64.68;;;204.80;2252.80;;;;;;5031461;28;20171;-59
2021/11/13 07:30:00;;;;;;;136.65;80.63;;;179.90;2252.80;;;;;;5030737;28;20032;-59
2021/11/13 07:32:27;;;;;;;171.45;102.90;;;204.80;2252.80;;;;;;5031257;28;20037;-59
2021/11/13 07:34:53;;;;;;;131.27;69.80;;;205.10;2252.80;;;;;;5030810;28;20069;-58
2021/11/13 07:37:20;;;;;;;127.05;67.43;;;205.00;2252.80;;;;;;5031147;28;20022;-58
2021/11/13 07:39:45;;;;;;;167.52;89.25;;;205.00;2252.80;;;;;;5030711;28;20026;-59
2021/11/13 07:42:11;;;;;;;157.35;81.05;;;180.10;2252.80;;;;;;5030647;28;20371;-59
2021/11/13 07:44:37;;;;;;;153.05;73.70;;;204.90;2252.80;;;;;;5030711;28;20461;-58
2021/11/13 07:47:03;;;;;;;191.43;85.03;;;204.80;2252.80;;;;;;5030549;28;20029;-59
2021/11/13 07:49:29;;;;;;;286.58;88.90;;;180.10;2252.80;;;;;;5030908;28;20032;-58
2021/11/13 07:51:55;;;;;;;208.35;82.47;;;179.90;2252.80;;;;;;5030731;28;20104;-58
2021/11/13 07:54:21;;;;;;;197.98;79.47;;;180.00;2252.80;;;;;;5030220;28;20041;-59
2021/11/13 07:56:47;;;;;;;151.90;75.95;;;204.90;2252.80;;;;;;5030821;28;20018;-59
2021/11/13 07:59:16;;;;;;;167.43;88.05;;;205.00;2252.80;;;;;;5030052;28;20025;-59
2021/11/13 08:01:42;;;;;;;210.45;110.60;;;204.90;2252.80;;;;;;5030242;28;20565;-58
2021/11/13 08:04:10;;;;;;;202.25;95.93;;;204.90;2252.80;;;;;;5030536;28;20033;-58
2021/11/13 08:06:36;;;;;;;285.88;190.98;;;204.80;2252.80;;;;;;5030359;28;20026;-58
2021/11/13 08:09:03;;;;;;;185.35;98.25;;;205.10;2252.80;;;;;;5029667;28;20097;-59
2021/11/13 08:11:28;;;;;;;165.27;81.30;;;205.40;2252.80;;;;;;5030032;28;20029;-59
2021/11/13 08:13:54;;;;;;;173.77;86.32;;;205.00;2252.80;;;;;;5029475;28;20086;-59
2021/11/13 08:16:20;;;;;;;180.48;99.55;;;205.00;2252.80;;;;;;5029725;28;20121;-59
2021/11/13 08:18:46;;;;;;;160.38;89.05;;;205.10;2252.80;;;;;;5019536;28;20442;-58
2021/11/13 08:21:12;;;;;;;172.27;92.47;;;205.20;2252.80;;;;;;5019965;28;20029;-58
2021/11/13 08:23:38;;;;;;;143.60;74.90;;;205.40;2252.80;;;;;;5028166;28;20082;-61
2021/11/13 08:26:04;;;;;;;145.80;73.00;;;205.40;2252.80;;;;;;5029698;28;20105;-61
2021/11/13 08:28:30;;;;;;;175.43;86.15;;;205.70;2252.80;;;;;;5030203;28;20053;-61
2021/11/13 08:30:56;;;;;;;204.88;106.95;;;204.90;2252.80;;;;;;5030030;28;20120;-61
2021/11/13 08:33:23;;;;;;;156.15;80.32;;;205.40;2252.80;;;;;;5029917;28;20128;-60
2021/11/13 08:35:50;;;;;;;160.15;82.40;;;205.30;2252.80;;;;;;5030180;28;20490;-59
2021/11/13 08:38:18;;;;;;;167.25;76.97;;;205.10;2252.80;;;;;;5030014;28;20029;-61
2021/11/13 08:40:45;;;;;;;155.45;78.68;;;205.30;2252.80;;;;;;5029667;28;20076;-59
2021/11/13 08:43:11;;;;;;;156.65;90.00;;;205.00;2252.80;;;;;;5029763;28;20025;-60
2021/11/13 08:45:37;;;;;;;133.85;74.07;;;205.30;2252.80;;;;;;5030016;28;20078;-61
2021/11/13 08:48:04;;;;;;;138.25;71.40;;;205.50;2252.80;;;;;;5029832;28;20021;-61
2021/11/13 08:50:31;;;;;;;120.55;66.18;;;205.50;2252.80;;;;;;5029845;28;20029;-60
2021/11/13 08:53:01;;;;;;;135.02;67.13;;;205.70;2252.80;;;;;;5030021;28;20056;-61
2021/11/13 08:55:31;;;;;;;142.18;68.93;;;205.70;2252.80;;;;;;5030077;28;20510;-61
2021/11/13 08:57:58;;;;;;;139.02;75.35;;;205.40;2252.80;;;;;;5029782;28;20025;-59
2021/11/13 09:00:47;;;;;;;154.75;80.07;;;230.40;2252.80;;;;;;5029325;28;20095;-60
2021/11/13 09:03:19;;;;;;;143.52;86.05;;;205.70;2252.80;;;;;;5029605;28;20032;-60
2021/11/13 09:05:45;;;;;;;155.55;92.43;;;230.80;2252.80;;;;;;5029575;28;20079;-60
2021/11/13 09:08:11;;;;;;;152.60;81.55;;;230.50;2252.80;;;;;;5029411;28;20021;-61
2021/11/13 09:10:38;;;;;;;191.52;100.85;;;230.60;2252.80;;;;;;5029955;28;20025;-60
2021/11/13 09:13:05;;;;;;;140.65;76.43;;;230.70;2252.80;;;;;;5029689;28;20065;-61
2021/11/13 09:15:34;;;;;;;163.93;88.60;;;230.70;2252.80;;;;;;5029563;28;20029;-61
2021/11/13 09:17:59;;;;;;;141.07;79.20;;;230.80;2252.80;;;;;;5029803;28;20025;-60
2021/11/13 09:20:26;;;;;;;138.90;73.40;;;231.10;2252.80;;;;;;5029862;28;20037;-61
2021/11/13 09:22:53;;;;;;;133.40;73.07;;;230.80;2252.80;;;;;;5029404;28;20036;-61
2021/11/13 09:25:19;;;;;;;119.35;67.00;;;230.80;2252.80;;;;;;5029644;28;20068;-60
2021/11/13 09:27:46;;;;;;;145.13;74.90;;;230.60;2252.80;;;;;;5029481;28;20030;-60
2021/11/13 09:30:17;;;;;;;141.75;78.45;;;230.40;2252.80;;;;;;5029180;28;20529;-61
2021/11/13 09:32:44;;;;;;;131.75;71.57;;;205.70;2252.80;;;;;;5032845;28;20041;-60
2021/11/13 09:35:11;;;;;;;120.40;68.25;;;230.60;2252.80;;;;;;5033086;28;20095;-60
2021/11/13 09:37:38;;;;;;;138.30;75.82;;;231.20;2252.80;;;;;;5033490;28;20067;-61
2021/11/13 09:40:06;;;;;;;120.90;72.47;;;256.10;2252.80;;;;;;5032930;28;20017;-60
2021/11/13 09:42:32;;;;;;;136.40;75.50;;;256.30;2252.80;;;;;;5032867;28;20025;-60
2021/11/13 09:44:58;;;;;;;141.88;83.47;;;231.30;2252.80;;;;;;5033261;28;20056;-60
2021/11/13 09:47:24;;;;;;;137.30;75.15;;;256.20;2252.80;;;;;;5032849;28;20060;-60
2021/11/13 09:49:50;;;;;;;124.30;68.32;;;256.20;2252.80;;;;;;5032902;28;20025;-61
2021/11/13 09:52:16;;;;;;;134.02;71.50;;;256.30;2252.80;;;;;;5032895;28;20127;-61
2021/11/13 09:54:43;;;;;;;124.30;71.35;;;256.20;2252.80;;;;;;5032700;28;20112;-61
2021/11/13 09:57:09;;;;;;;112.70;67.07;;;256.00;2252.80;;;;;;5032765;28;20025;-60
2021/11/13 09:59:36;;;;;;;123.97;69.75;;;256.20;2252.80;;;;;;5032610;28;20037;-60
2021/11/13 10:02:01;;;;;;;124.55;67.10;;;256.50;2252.80;;;;;;5032621;28;20025;-60
2021/11/13 10:04:28;;;;;;;136.55;76.10;;;256.60;2252.80;;;;;;5032862;28;20049;-60
2021/11/13 10:06:53;;;;;;;145.23;77.00;;;256.90;2252.80;;;;;;5032535;28;20037;-61
2021/11/13 10:09:19;;;;;;;142.05;84.43;;;256.20;2252.80;;;;;;5032843;28;20029;-61
2021/11/13 10:11:48;;;;;;;124.20;76.45;;;256.50;2252.80;;;;;;5032577;28;20095;-61
2021/11/13 10:14:16;;;;;;;127.85;72.03;;;231.30;2252.80;;;;;;5032323;28;20040;-61
2021/11/13 10:16:46;;;;;;;132.00;77.22;;;231.30;2252.80;;;;;;5032395;28;20084;-59
2021/11/13 10:19:15;;;;;;;137.10;84.57;;;256.10;2252.80;;;;;;5032450;28;20116;-60
2021/11/13 10:21:44;;;;;;;143.65;85.00;;;256.50;2252.80;;;;;;5032278;28;20043;-61
2021/11/13 10:24:12;;;;;;;133.73;83.80;;;256.20;2252.80;;;;;;5032159;28;20041;-60
2021/11/13 10:26:41;;;;;;;128.75;79.65;;;256.40;2252.80;;;;;;5032271;28;20026;-59
2021/11/13 10:29:32;;;;;;;129.98;79.32;;;256.40;2252.80;;;;;;5032321;28;20026;-60
2021/11/13 10:32:01;;;;;;;119.45;74.30;;;256.70;2252.80;;;;;;5031861;28;20044;-59
2021/11/13 10:34:38;;;;;;;123.28;80.20;;;256.30;2252.80;;;;;;5032399;28;20033;-61
2021/11/13 10:37:07;;;;;;;127.18;78.70;;;231.30;2252.80;;;;;;5032060;28;20057;-60
2021/11/13 10:39:36;;;;;;;132.77;77.15;;;256.50;2252.80;;;;;;5032016;28;20079;-60
2021/11/13 10:42:11;;;;;;;120.20;76.10;;;256.30;2252.80;;;;;;5031522;28;20025;-60
2021/11/13 10:44:39;;;;;;;137.90;80.68;;;256.10;2252.80;;;;;;5031721;28;20112;-62
2021/11/13 10:47:12;;;;;;;134.07;81.00;;;256.10;2252.80;;;;;;5031767;28;20018;-59
2021/11/13 10:49:38;;;;;;;;;;;256.00;2252.80;;;;;;5032431;28;20025;-61
2021/11/13 10:52:07;;;;;;;120.85;72.55;;;256.40;2252.80;;;;;;5031803;28;19905;-60
2021/11/13 10:54:33;;;;;;;139.55;82.80;;;256.30;2252.80;;;;;;5031466;28;20033;-62
2021/11/13 10:57:02;;;;;;;137.82;82.05;;;256.70;2252.80;;;;;;5031855;28;20476;-61
2021/11/13 10:59:33;;;;;;;128.20;79.80;;;256.30;2252.80;;;;;;5031431;28;20088;-60
2021/11/13 11:02:02;;;;;;;132.30;80.93;;;256.50;2252.80;;;;;;5032002;28;20026;-61
2021/11/13 11:04:35;;;;;;;132.93;82.28;;;256.40;2252.80;;;;;;5031968;28;20033;-60
2021/11/13 11:07:25;;;;;;;141.70;81.90;;;256.60;2252.80;;;;;;5031448;28;20111;-62
2021/11/13 11:10:00;;;;;;;158.60;98.93;;;256.70;2252.80;;;;;;5031293;28;20028;-60
2021/11/13 11:12:31;;;;;;;146.32;83.68;;;256.60;2252.80;;;;;;5031658;28;20057;-60
2021/11/13 11:14:57;;;;;;;152.38;89.35;;;256.80;2252.80;;;;;;5031653;28;20079;-61
2021/11/13 11:17:29;;;;;;;137.95;83.38;;;256.70;2252.80;;;;;;5031186;28;20029;-61
2021/11/13 11:20:03;;;;;;;145.63;89.75;;;281.80;2278.40;;;;;;5031271;28;20108;-59
2021/11/13 11:22:31;;;;;;;145.65;90.00;;;281.70;2278.40;;;;;;5031462;28;20067;-60
2021/11/13 11:25:00;;;;;;;151.70;89.47;;;256.90;2252.80;;;;;;5031271;28;20037;-61
2021/11/13 11:27:26;;;;;;;159.95;95.57;;;256.80;2252.80;;;;;;5031417;28;20119;-61
2021/11/13 11:29:57;;;;;;;136.70;87.18;;;281.70;2278.40;;;;;;5030832;28;20116;-59
2021/11/13 11:32:25;;;;;;;147.98;88.40;;;281.70;2278.40;;;;;;5030694;28;20468;-60
2021/11/13 11:34:53;;;;;;;154.13;94.78;;;281.70;2278.40;;;;;;5030782;28;20056;-59
2021/11/13 11:37:25;;;;;;;167.00;102.53;;;281.70;2278.40;;;;;;5030991;28;20446;-61
2021/11/13 11:39:58;;;;;;;173.55;113.03;;;281.70;2278.40;;;;;;5030789;28;20055;-60
2021/11/13 11:42:25;;;;;;;165.80;99.30;;;281.70;2278.40;;;;;;5030746;28;20079;-60
2021/11/13 11:44:52;;;;;;;165.32;96.88;;;281.90;2278.40;;;;;;5030777;28;20036;-60
2021/11/13 11:47:20;;;;;;;171.95;104.38;;;282.00;2278.40;;;;;;5030835;28;20025;-59
2021/11/13 11:49:51;;;;;;;183.43;107.85;;;282.00;2278.40;;;;;;5030823;28;20028;-60
2021/11/13 11:52:19;;;;;;;165.50;105.45;;;282.20;2278.40;;;;;;5030612;28;20104;-60